• Join FlightAware (Why Join?)
  • Login
  • US Flag 
08:15AM EDT


 

Airport Tracker/Info


-or-


 

Live Flight TrackerFlight Track Log ✈ UAL4180 ✈ 24-Apr-2013 ✈ KEWR - KDAY

Flight Track Log - Related Links

Times and Time Zones

All times are in EDT time to prevent confusion due to time zone crossing. See the UAL4180 flight status page for this flight to view local times or setup timezone preferences in your user account.

Time Position Orientation Groundspeed Altitude Reporting Facility
EDT Latitude Longitude Course Direction KTS MPH feet Rate Location/Type
08:08PM 40.6333 -74.2000 285° West 205 236 2,400  Level New York TRACON
08:09PM 40.6500 -74.2833 285° West 234 269 5,000 2,580 Climbing New York TRACON
08:10PM 40.6667 -74.3667 285° West 236 272 7,600 2,400 Climbing New York TRACON
08:11PM 40.6833 -74.4500 285° West 254 292 9,900 1,740 Climbing New York TRACON
08:12PM 40.7000 -74.5500 282° West 289 333 11,300 1,380 Climbing New York TRACON
08:13PM 40.7167 -74.6667 281° West 311 358 12,800 1,380 Climbing New York TRACON
08:15PM 40.7497 -74.7839 290° West 330 380 14,300 1,320 Climbing New York Center
08:16PM 40.7689 -74.8894 284° West 330 380 15,600 1,500 Climbing New York Center
08:17PM 40.7769 -75.0158 275° West 323 372 17,400 1,680 Climbing New York Center
08:18PM 40.7728 -75.1333 267° West 323 372 19,000 1,380 Climbing New York Center
08:19PM 40.7686 -75.2400 267° West 323 372 20,200 1,380 Climbing New York Center
08:20PM 40.7664 -75.3578 269° West 323 372 21,800 1,680 Climbing New York Center
08:21PM 40.7369 -75.4653 250° West 328 377 23,600 2,040 Climbing New York Center
08:22PM 40.6997 -75.5667 244° Southwest 318 366 25,900 1,920 Climbing New York Center
08:23PM 40.6644 -75.6628 244° Southwest 307 353 27,600 1,320 Climbing New York Center
08:24PM 40.6250 -75.7611 242° Southwest 301 346 28,600 1,560 Climbing New York Center
08:25PM 40.5917 -75.8544 245° Southwest 295 339 30,700 1,920 Climbing New York Center
08:26PM 40.5456 -75.9603 240° Southwest 301 346 32,500 1,740 Climbing New York Center
08:27PM 40.5122 -76.0506 244° Southwest 291 335 34,200 1,380 Climbing New York Center
08:28PM 40.4792 -76.1408 244° Southwest 286 329 35,400 840 Climbing New York Center
08:29PM 40.4439 -76.2281 242° Southwest 281 323 36,000 300 Climbing New York Center
08:30PM 40.4081 -76.3261 244° Southwest 281 323 36,000  Level New York Center
08:31PM 40.3675 -76.4319 243° Southwest 308 354 36,000  Level New York Center
08:32PM 40.3364 -76.5544 252° West 335 386 36,000  Level New York Center
08:33PM 40.3053 -76.6800 252° West 355 409 36,000  Level New York Center
08:34PM 40.2764 -76.8000 253° West 361 415 36,000  Level New York Center
08:35PM 40.2433 -76.9139 249° West 356 410 36,000  Level New York Center
08:36PM 40.2144 -77.0283 252° West 345 397 36,000  Level New York Center
08:37PM 40.1831 -77.1478 251° West 340 391 36,000  Level New York Center
08:38PM 40.1617 -77.2708 257° West 340 391 36,000  Level New York Center
08:39PM 40.1617 -77.3822 270° West 340 391 36,000  Level New York Center
08:42PM 40.1519 -77.7989 260° West 339 390 36,000  Level Cleveland Center
08:43PM 40.1483 -77.9131 268° West 328 377 36,000  Level Cleveland Center
08:44PM 40.1469 -78.0353 269° West 333 383 36,000  Level Cleveland Center
08:45PM 40.1497 -78.1547 272° West 333 383 36,000  Level Cleveland Center
08:46PM 40.1522 -78.2769 272° West 333 383 36,000  Level Cleveland Center
08:47PM 40.1547 -78.3992 272° West 333 383 36,000  Level Cleveland Center
08:48PM 40.1569 -78.5186 271° West 333 383 36,000  Level Cleveland Center
08:49PM 40.1589 -78.6408 271° West 333 383 36,000  Level Cleveland Center
08:50PM 40.1611 -78.7656 271° West 333 383 36,000  Level Cleveland Center
08:51PM 40.1631 -78.8933 271° West 343 395 36,000  Level Cleveland Center
08:52PM 40.1647 -79.0183 271° West 350 403 36,000  Level Cleveland Center
08:53PM 40.1667 -79.1486 271° West 355 409 36,000  Level Cleveland Center
08:54PM 40.1661 -79.2736 270° West 355 409 36,000  Level Cleveland Center
08:55PM 40.1714 -79.3983 273° West 349 402 36,000  Level Cleveland Center
08:56PM 40.1728 -79.5233 271° West 349 402 36,000  Level Cleveland Center
08:57PM 40.1739 -79.6456 271° West 344 396 36,000  Level Cleveland Center
08:58PM 40.1725 -79.7625 269° West 344 396 36,000  Level Cleveland Center
08:59PM 40.1733 -79.8819 271° West 339 390 36,000  Level Cleveland Center
09:00PM 40.1742 -79.9989 271° West 334 384 36,000  Level Cleveland Center
09:01PM 40.1747 -80.1267 270° West 318 366 36,000 -120 Level Cleveland Center
09:02PM 40.1750 -80.2381 270° West 318 366 35,800 -1,080 Descending Cleveland Center
09:03PM 40.1753 -80.3494 270° West 312 359 33,900 -1,980 Descending Cleveland Center
09:04PM 40.1756 -80.4581 270° West 305 351 31,900 -1,800 Descending Cleveland Center
09:05PM 40.1756 -80.5750 270° West 311 358 30,300 -1,320 Descending Cleveland Center
09:06PM 40.1733 -80.6944 269° West 321 369 29,300 -1,020 Descending Cleveland Center
09:07PM 40.1733 -80.8114 270° West 326 375 28,300 -660 Descending Cleveland Center
09:08PM 40.1731 -80.9336 270° West 326 375 28,000 -120 Descending Cleveland Center
09:10PM 40.1692 -81.1689 269° West 344 396 28,000  Level Indianapolis Center
09:11PM 40.1683 -81.2933 270° West 340 391 28,000  Level Indianapolis Center
09:12PM 40.1672 -81.4181 269° West 339 390 28,000  Level Indianapolis Center
09:13PM 40.1664 -81.5406 270° West 336 387 28,000  Level Indianapolis Center
09:14PM 40.1653 -81.6625 269° West 333 383 28,000  Level Indianapolis Center
09:15PM 40.1633 -81.7983 269° West 334 384 28,000  Level Indianapolis Center
09:16PM 40.1619 -81.9206 269° West 333 383 28,000  Level Indianapolis Center
09:17PM 40.1608 -82.0419 269° West 332 382 28,000 -300 Level Indianapolis Center
09:18PM 40.1592 -82.1628 269° West 329 379 27,400 -840 Descending Indianapolis Center
09:19PM 40.1564 -82.2839 268° West 332 382 26,400 -1,080 Descending Indianapolis Center
09:20PM 40.1539 -82.4056 268° West 335 386 25,300 -1,140 Descending Indianapolis Center
09:21PM 40.1528 -82.5311 269° West 342 394 24,100 -1,440 Descending Indianapolis Center
09:22PM 40.1536 -82.6525 271° West 333 383 22,400 -1,740 Descending Indianapolis Center
09:23PM 40.1611 -82.7717 275° West 328 377 20,600 -1,860 Descending Indianapolis Center
09:24PM 40.1664 -82.8872 273° West 319 367 18,700 -1,740 Descending Indianapolis Center
09:25PM 40.1722 -83.0086 274° West 330 380 17,100 -1,320 Descending Indianapolis Center
09:26PM 40.1792 -83.1339 274° West 343 395 16,000 -840 Descending Indianapolis Center
09:27PM 40.1800 -83.1925 271° West 355 409 16,000 -1,020 Level Indianapolis Center
09:27PM 40.1867 -83.3053 274° West 348 400 14,800 -1,440 Descending Indianapolis Center
09:29PM 40.1834 -83.4493 270° West  Level FlightAware Approximate
09:29PM 40.1622 -83.5167 270° West 333 383 12,100  Level Indianapolis Center
09:30PM 40.1489 -83.5681 251° West 336 387 11,600 -1,320 Descending Indianapolis Center
09:30PM 40.1322 -83.6278 250° West 325 374 10,800 -1,200 Descending Indianapolis Center
09:31PM 40.1178 -83.6786 250° West 333 383 10,400 -900 Descending Indianapolis Center
09:31PM 40.1044 -83.7353 253° West 306 352 9,900 -900 Descending Indianapolis Center
09:32PM 40.0939 -83.7739 250° West 253 291 9,500 -1,620 Descending Indianapolis Center
09:32PM 40.0806 -83.8192 249° West 255 293 8,300 -2,220 Descending Indianapolis Center
09:33PM 40.0628 -83.8544 237° Southwest 271 312 7,300 -1,800 Descending Indianapolis Center
09:33PM 40.0597 -83.9003 265° West 243 280 6,500 -1,140 Descending Indianapolis Center
09:34PM 40.0400 -83.9703 250° West 222 255 5,400 -1,080 Descending Indianapolis Center
09:35PM 40.0222 -84.0019 234° Southwest 187 215 5,000 -900 Descending Indianapolis Center
09:35PM 40.0097 -84.0292 239° Southwest 203 234 4,500 -900 Descending Indianapolis Center